Terminal Aerodrome Forecast
Issued by NWS Jackson, MS

Home | Current Version | Previous Version | Text Only | Print | Product List | Glossary On
Versions: 1 2 3 4 5 6 7 8 9 10 11 12 13 14 15 16 17
533
FTUS44 KJAN 050520
TAFMEI
TAF
KMEI 050520Z 0506/0606 26009KT P6SM FEW090
     FM051300 33015G25KT P6SM SKC
     FM060000 32010KT P6SM SKC=

USA.gov is the U.S. government's official web portal to all federal, state and local government web resources and services.